sensor_id;sensor_type;location;lat;lon;timestamp;pressure;altitude;pressure_sealevel;temperature;humidity
84501;BME280;74725;44.210;17.906;2024-01-15T05:04:41;96899.84;;;4.60;100.00
84501;BME280;74725;44.210;17.906;2024-01-15T06:33:38;96815.72;;;4.44;100.00
84501;BME280;74725;44.210;17.906;2024-01-15T06:36:05;96795.69;;;4.37;100.00
84501;BME280;74725;44.210;17.906;2024-01-15T06:38:31;96799.94;;;4.38;100.00
84501;BME280;74725;44.210;17.906;2024-01-15T06:40:56;96806.63;;;4.34;100.00
84501;BME280;74725;44.210;17.906;2024-01-15T06:43:22;96806.69;;;4.30;100.00
84501;BME280;74725;44.210;17.906;2024-01-15T06:45:47;96813.13;;;4.36;100.00
84501;BME280;74725;44.210;17.906;2024-01-15T06:48:13;96811.81;;;4.25;100.00
84501;BME280;74725;44.210;17.906;2024-01-15T06:50:44;96803.69;;;4.01;100.00
84501;BME280;74725;44.210;17.906;2024-01-15T06:53:10;96811.00;;;4.04;100.00
84501;BME280;74725;44.210;17.906;2024-01-15T06:55:37;96807.81;;;4.09;100.00
84501;BME280;74725;44.210;17.906;2024-01-15T06:58:39;96808.56;;;4.10;100.00
84501;BME280;74725;44.210;17.906;2024-01-15T07:01:04;96798.44;;;4.14;100.00
84501;BME280;74725;44.210;17.906;2024-01-15T07:03:31;96795.84;;;4.30;100.00
84501;BME280;74725;44.210;17.906;2024-01-15T07:05:56;96785.56;;;4.41;100.00
84501;BME280;74725;44.210;17.906;2024-01-15T07:08:22;96799.47;;;4.44;100.00
84501;BME280;74725;44.210;17.906;2024-01-15T07:10:47;96799.88;;;4.22;100.00
84501;BME280;74725;44.210;17.906;2024-01-15T07:13:13;96792.97;;;4.37;100.00
84501;BME280;74725;44.210;17.906;2024-01-15T07:15:39;96790.56;;;4.43;100.00
84501;BME280;74725;44.210;17.906;2024-01-15T07:18:05;96778.41;;;4.51;100.00
84501;BME280;74725;44.210;17.906;2024-01-15T07:20:30;96781.25;;;4.64;100.00
84501;BME280;74725;44.210;17.906;2024-01-15T07:22:56;96784.81;;;4.81;100.00
84501;BME280;74725;44.210;17.906;2024-01-15T07:25:22;96804.81;;;4.87;100.00
84501;BME280;74725;44.210;17.906;2024-01-15T07:27:48;96806.75;;;5.06;100.00
84501;BME280;74725;44.210;17.906;2024-01-15T07:30:14;96799.81;;;5.22;100.00
84501;BME280;74725;44.210;17.906;2024-01-15T07:32:41;96792.72;;;5.28;99.08
84501;BME280;74725;44.210;17.906;2024-01-15T07:35:08;96791.16;;;5.47;98.67
84501;BME280;74725;44.210;17.906;2024-01-15T07:37:33;96795.81;;;5.62;97.59
84501;BME280;74725;44.210;17.906;2024-01-15T07:39:59;96796.41;;;5.70;97.18
84501;BME280;74725;44.210;17.906;2024-01-15T07:42:25;96809.41;;;5.79;96.41
84501;BME280;74725;44.210;17.906;2024-01-15T07:44:51;96795.31;;;5.84;95.77
84501;BME280;74725;44.210;17.906;2024-01-15T07:47:17;96801.94;;;5.83;95.43
84501;BME280;74725;44.210;17.906;2024-01-15T07:49:42;96809.69;;;6.01;95.06
84501;BME280;74725;44.210;17.906;2024-01-15T07:52:08;96809.75;;;6.13;93.98
84501;BME280;74725;44.210;17.906;2024-01-15T07:54:34;96815.22;;;5.97;94.05
84501;BME280;74725;44.210;17.906;2024-01-15T07:57:01;96816.38;;;6.12;93.88
84501;BME280;74725;44.210;17.906;2024-01-15T07:59:28;96807.38;;;5.99;94.18
84501;BME280;74725;44.210;17.906;2024-01-15T08:01:54;96806.34;;;6.09;95.68
84501;BME280;74725;44.210;17.906;2024-01-15T08:04:20;96808.38;;;6.22;95.00
84501;BME280;74725;44.210;17.906;2024-01-15T08:06:46;96818.22;;;6.32;94.13
84501;BME280;74725;44.210;17.906;2024-01-15T08:09:12;96816.84;;;6.40;93.73
84501;BME280;74725;44.210;17.906;2024-01-15T08:11:40;96813.78;;;6.38;94.81
84501;BME280;74725;44.210;17.906;2024-01-15T08:14:10;96818.09;;;6.52;93.22
84501;BME280;74725;44.210;17.906;2024-01-15T08:16:37;96812.28;;;6.66;93.06
84501;BME280;74725;44.210;17.906;2024-01-15T08:19:03;96811.31;;;6.73;93.16
84501;BME280;74725;44.210;17.906;2024-01-15T08:21:29;96804.16;;;6.79;93.29
84501;BME280;74725;44.210;17.906;2024-01-15T08:24:02;96800.47;;;6.85;92.90
84501;BME280;74725;44.210;17.906;2024-01-15T08:26:28;96794.69;;;6.83;93.37
84501;BME280;74725;44.210;17.906;2024-01-15T08:28:54;96791.88;;;7.00;91.82
84501;BME280;74725;44.210;17.906;2024-01-15T08:31:20;96788.75;;;7.14;92.06
84501;BME280;74725;44.210;17.906;2024-01-15T08:33:47;96788.66;;;7.30;91.08
84501;BME280;74725;44.210;17.906;2024-01-15T08:36:13;96779.06;;;7.39;91.33
84501;BME280;74725;44.210;17.906;2024-01-15T08:38:38;96781.38;;;7.53;89.74
84501;BME280;74725;44.210;17.906;2024-01-15T08:41:04;96773.41;;;7.71;90.38
84501;BME280;74725;44.210;17.906;2024-01-15T08:43:30;96764.56;;;7.80;89.45
84501;BME280;74725;44.210;17.906;2024-01-15T08:45:57;96762.03;;;7.85;87.94
84501;BME280;74725;44.210;17.906;2024-01-15T08:48:22;96771.63;;;7.77;88.09
84501;BME280;74725;44.210;17.906;2024-01-15T08:50:48;96768.81;;;7.43;88.89
84501;BME280;74725;44.210;17.906;2024-01-15T08:53:14;96761.75;;;7.45;89.38
84501;BME280;74725;44.210;17.906;2024-01-15T08:55:40;96766.88;;;7.30;90.38
84501;BME280;74725;44.210;17.906;2024-01-15T08:58:10;96759.69;;;7.37;90.99
84501;BME280;74725;44.210;17.906;2024-01-15T09:00:35;96753.38;;;7.52;89.94
84501;BME280;74725;44.210;17.906;2024-01-15T09:03:01;96762.06;;;7.60;89.75
84501;BME280;74725;44.210;17.906;2024-01-15T09:05:27;96746.28;;;7.42;90.25
84501;BME280;74725;44.210;17.906;2024-01-15T09:07:54;96745.41;;;7.58;90.03
84501;BME280;74725;44.210;17.906;2024-01-15T09:10:20;96753.13;;;7.47;90.86
84501;BME280;74725;44.210;17.906;2024-01-15T09:12:46;96749.31;;;7.70;89.05
84501;BME280;74725;44.210;17.906;2024-01-15T09:15:12;96752.25;;;7.75;88.69
84501;BME280;74725;44.210;17.906;2024-01-15T09:17:38;96747.31;;;7.83;89.30
84501;BME280;74725;44.210;17.906;2024-01-15T09:20:04;96744.25;;;7.94;88.27
84501;BME280;74725;44.210;17.906;2024-01-15T09:22:31;96748.00;;;8.09;87.37
84501;BME280;74725;44.210;17.906;2024-01-15T09:24:57;96742.47;;;8.34;86.61
84501;BME280;74725;44.210;17.906;2024-01-15T09:27:23;96740.53;;;8.57;85.57
84501;BME280;74725;44.210;17.906;2024-01-15T09:29:52;96727.31;;;8.77;85.00
84501;BME280;74725;44.210;17.906;2024-01-15T09:32:17;96729.25;;;8.99;83.88
84501;BME280;74725;44.210;17.906;2024-01-15T09:34:47;96720.38;;;9.17;83.74
84501;BME280;74725;44.210;17.906;2024-01-15T09:37:23;96714.72;;;9.42;82.24
84501;BME280;74725;44.210;17.906;2024-01-15T09:39:49;96714.78;;;9.70;80.23
84501;BME280;74725;44.210;17.906;2024-01-15T09:42:15;96738.50;;;9.82;78.99
84501;BME280;74725;44.210;17.906;2024-01-15T09:44:41;96728.78;;;9.90;79.52
84501;BME280;74725;44.210;17.906;2024-01-15T09:47:07;96719.34;;;9.82;79.08
84501;BME280;74725;44.210;17.906;2024-01-15T09:49:33;96710.41;;;9.82;78.38
84501;BME280;74725;44.210;17.906;2024-01-15T09:52:01;96704.31;;;9.77;79.93
84501;BME280;74725;44.210;17.906;2024-01-15T09:54:27;96690.94;;;9.79;78.95
84501;BME280;74725;44.210;17.906;2024-01-15T09:56:54;96689.44;;;9.69;79.43
84501;BME280;74725;44.210;17.906;2024-01-15T09:59:22;96683.63;;;9.58;79.93
84501;BME280;74725;44.210;17.906;2024-01-15T10:01:50;96683.50;;;9.71;81.07
84501;BME280;74725;44.210;17.906;2024-01-15T10:04:16;96669.69;;;9.65;80.04
84501;BME280;74725;44.210;17.906;2024-01-15T10:06:45;96670.59;;;9.62;80.13
84501;BME280;74725;44.210;17.906;2024-01-15T10:09:14;96665.56;;;9.79;80.76
84501;BME280;74725;44.210;17.906;2024-01-15T10:11:44;96663.16;;;9.81;80.48
84501;BME280;74725;44.210;17.906;2024-01-15T10:14:12;96668.31;;;9.79;81.13
84501;BME280;74725;44.210;17.906;2024-01-15T10:16:41;96660.13;;;9.88;80.33
84501;BME280;74725;44.210;17.906;2024-01-15T10:19:08;96656.31;;;9.95;80.59
84501;BME280;74725;44.210;17.906;2024-01-15T10:21:34;96646.28;;;10.10;79.79
84501;BME280;74725;44.210;17.906;2024-01-15T10:24:01;96644.78;;;10.09;80.36
84501;BME280;74725;44.210;17.906;2024-01-15T10:28:53;96637.47;;;10.06;80.00
84501;BME280;74725;44.210;17.906;2024-01-15T10:31:18;96627.91;;;10.01;80.86
84501;BME280;74725;44.210;17.906;2024-01-15T10:33:48;96620.31;;;9.78;82.18
84501;BME280;74725;44.210;17.906;2024-01-15T10:36:15;96625.03;;;9.87;81.50
84501;BME280;74725;44.210;17.906;2024-01-15T10:38:42;96617.28;;;9.94;81.03
84501;BME280;74725;44.210;17.906;2024-01-15T10:41:08;96615.28;;;10.13;80.78
84501;BME280;74725;44.210;17.906;2024-01-15T10:43:33;96611.50;;;10.38;80.71
84501;BME280;74725;44.210;17.906;2024-01-15T10:45:59;96608.66;;;10.66;78.98
84501;BME280;74725;44.210;17.906;2024-01-15T10:48:26;96604.31;;;10.92;79.32
84501;BME280;74725;44.210;17.906;2024-01-15T10:50:54;96602.59;;;11.04;78.50
84501;BME280;74725;44.210;17.906;2024-01-15T10:53:20;96599.94;;;11.10;77.86
84501;BME280;74725;44.210;17.906;2024-01-15T10:55:47;96596.09;;;10.92;76.75
84501;BME280;74725;44.210;17.906;2024-01-15T10:58:14;96590.66;;;11.07;76.65
84501;BME280;74725;44.210;17.906;2024-01-15T11:00:41;96581.31;;;11.23;76.47
84501;BME280;74725;44.210;17.906;2024-01-15T11:03:07;96582.59;;;11.37;76.48
84501;BME280;74725;44.210;17.906;2024-01-15T11:05:37;96569.88;;;11.48;75.97
84501;BME280;74725;44.210;17.906;2024-01-15T11:08:06;96572.13;;;11.74;75.19
84501;BME280;74725;44.210;17.906;2024-01-15T11:10:45;96574.63;;;11.87;75.66
84501;BME280;74725;44.210;17.906;2024-01-15T11:13:21;96570.84;;;11.99;74.88
84501;BME280;74725;44.210;17.906;2024-01-15T11:16:03;96560.44;;;12.03;74.53
84501;BME280;74725;44.210;17.906;2024-01-15T11:18:34;96561.19;;;12.04;75.06
84501;BME280;74725;44.210;17.906;2024-01-15T11:23:58;96546.44;;;11.86;74.40
84501;BME280;74725;44.210;17.906;2024-01-15T11:26:37;96550.44;;;11.76;75.18
84501;BME280;74725;44.210;17.906;2024-01-15T11:31:56;96553.69;;;11.74;74.93
84501;BME280;74725;44.210;17.906;2024-01-15T11:34:50;96545.91;;;11.73;74.57
84501;BME280;74725;44.210;17.906;2024-01-15T11:37:16;96536.81;;;11.52;75.37
84501;BME280;74725;44.210;17.906;2024-01-15T11:39:42;96532.81;;;11.53;75.86
84501;BME280;74725;44.210;17.906;2024-01-15T11:42:10;96529.16;;;11.56;75.06
84501;BME280;74725;44.210;17.906;2024-01-15T11:44:37;96520.00;;;11.59;75.93
84501;BME280;74725;44.210;17.906;2024-01-15T11:47:03;96513.00;;;11.58;76.19
84501;BME280;74725;44.210;17.906;2024-01-15T11:52:35;96509.75;;;12.13;75.05
84501;BME280;74725;44.210;17.906;2024-01-15T12:00:05;96482.72;;;12.56;73.05
84501;BME280;74725;44.210;17.906;2024-01-15T12:02:50;96484.50;;;12.59;73.40
84501;BME280;74725;44.210;17.906;2024-01-15T12:05:24;96476.84;;;12.48;72.81
84501;BME280;74725;44.210;17.906;2024-01-15T12:07:55;96458.06;;;12.62;73.93
84501;BME280;74725;44.210;17.906;2024-01-15T12:10:22;96451.56;;;12.80;73.26
84501;BME280;74725;44.210;17.906;2024-01-15T12:13:11;96443.72;;;12.93;73.18
84501;BME280;74725;44.210;17.906;2024-01-15T12:15:38;96439.69;;;13.09;72.93
84501;BME280;74725;44.210;17.906;2024-01-15T12:18:09;96435.16;;;13.06;72.81
84501;BME280;74725;44.210;17.906;2024-01-15T12:20:35;96436.53;;;12.95;72.47
84501;BME280;74725;44.210;17.906;2024-01-15T12:23:02;96433.09;;;13.01;71.47
84501;BME280;74725;44.210;17.906;2024-01-15T12:25:37;96423.19;;;12.68;71.71
84501;BME280;74725;44.210;17.906;2024-01-15T12:28:03;96427.75;;;12.71;72.28
84501;BME280;74725;44.210;17.906;2024-01-15T12:30:30;96428.84;;;12.59;72.69
84501;BME280;74725;44.210;17.906;2024-01-15T12:32:57;96419.34;;;12.60;73.39
84501;BME280;74725;44.210;17.906;2024-01-15T12:35:24;96408.13;;;12.78;73.30
84501;BME280;74725;44.210;17.906;2024-01-15T12:37:51;96403.91;;;12.83;73.21
84501;BME280;74725;44.210;17.906;2024-01-15T12:40:21;96400.00;;;12.89;72.81
84501;BME280;74725;44.210;17.906;2024-01-15T12:42:47;96395.19;;;12.84;73.11
84501;BME280;74725;44.210;17.906;2024-01-15T12:45:13;96394.84;;;12.77;73.10
84501;BME280;74725;44.210;17.906;2024-01-15T12:47:40;96404.47;;;12.87;72.24
84501;BME280;74725;44.210;17.906;2024-01-15T12:50:10;96400.88;;;13.01;71.59
84501;BME280;74725;44.210;17.906;2024-01-15T12:52:36;96402.66;;;13.25;71.11
84501;BME280;74725;44.210;17.906;2024-01-15T12:55:05;96398.38;;;13.24;71.78
84501;BME280;74725;44.210;17.906;2024-01-15T12:57:31;96389.13;;;13.47;70.85
84501;BME280;74725;44.210;17.906;2024-01-15T12:59:56;96386.53;;;13.64;70.39
84501;BME280;74725;44.210;17.906;2024-01-15T13:02:41;96382.13;;;14.09;69.50
84501;BME280;74725;44.210;17.906;2024-01-15T13:05:08;96370.31;;;14.40;67.28
84501;BME280;74725;44.210;17.906;2024-01-15T13:07:34;96370.63;;;14.48;67.88
84501;BME280;74725;44.210;17.906;2024-01-15T13:10:00;96365.41;;;14.56;66.48
84501;BME280;74725;44.210;17.906;2024-01-15T13:12:25;96363.34;;;14.45;66.63
84501;BME280;74725;44.210;17.906;2024-01-15T13:14:51;96351.28;;;14.42;67.19
84501;BME280;74725;44.210;17.906;2024-01-15T13:22:24;96368.56;;;13.68;69.62
84501;BME280;74725;44.210;17.906;2024-01-15T13:24:55;96357.28;;;13.66;69.67
84501;BME280;74725;44.210;17.906;2024-01-15T13:27:21;96355.75;;;13.60;68.85
84501;BME280;74725;44.210;17.906;2024-01-15T13:29:46;96343.41;;;13.50;70.45
84501;BME280;74725;44.210;17.906;2024-01-15T13:32:17;96332.97;;;13.28;70.36
84501;BME280;74725;44.210;17.906;2024-01-15T13:34:47;96337.13;;;12.97;71.07
84501;BME280;74725;44.210;17.906;2024-01-15T15:48:52;96291.56;;;9.35;90.96
84501;BME280;74725;44.210;17.906;2024-01-15T15:51:17;96297.63;;;9.39;90.68
84501;BME280;74725;44.210;17.906;2024-01-15T15:53:43;96300.84;;;9.38;91.10
84501;BME280;74725;44.210;17.906;2024-01-15T15:56:09;96293.38;;;9.38;91.51
84501;BME280;74725;44.210;17.906;2024-01-15T16:11:31;96309.63;;;9.42;90.96
84501;BME280;74725;44.210;17.906;2024-01-15T16:13:58;96300.56;;;9.26;92.44
84501;BME280;74725;44.210;17.906;2024-01-15T16:16:24;96305.38;;;9.31;92.18
84501;BME280;74725;44.210;17.906;2024-01-15T21:51:59;96597.31;;;7.17;100.00
84501;BME280;74725;44.210;17.906;2024-01-15T21:54:25;96605.91;;;7.28;100.00
84501;BME280;74725;44.210;17.906;2024-01-15T21:56:51;96616.84;;;6.90;100.00
84501;BME280;74725;44.210;17.906;2024-01-15T23:26:37;96840.47;;;5.61;100.00
